createdAt,value
2023-04-16T00:00:18.325Z,1002.55
2023-04-16T00:01:13.631Z,1002.62
2023-04-16T00:02:13.839Z,1002.61
2023-04-16T00:03:13.253Z,1002.57
2023-04-16T00:04:13.558Z,1002.57
2023-04-16T00:05:13.550Z,1002.61
2023-04-16T00:06:13.476Z,1002.57
2023-04-16T00:07:13.432Z,1002.60
2023-04-16T00:08:13.589Z,1002.61
2023-04-16T00:09:13.495Z,1002.56
2023-04-16T00:10:13.742Z,1002.61
2023-04-16T00:11:13.872Z,1002.57
2023-04-16T00:12:12.911Z,1002.55
2023-04-16T00:13:12.772Z,1002.56
2023-04-16T00:14:13.760Z,1002.59
2023-04-16T00:15:13.804Z,1002.57
2023-04-16T00:16:13.958Z,1002.53
2023-04-16T00:17:13.052Z,1002.59
2023-04-16T00:18:13.091Z,1002.55
2023-04-16T00:19:13.344Z,1002.60
2023-04-16T00:20:13.323Z,1002.62
2023-04-16T00:21:13.685Z,1002.58
2023-04-16T00:22:13.622Z,1002.59
2023-04-16T00:23:13.549Z,1002.62
2023-04-16T00:24:13.449Z,1002.61
2023-04-16T00:25:13.461Z,1002.64
2023-04-16T00:26:13.348Z,1002.62
2023-04-16T00:27:13.325Z,1002.61
2023-04-16T00:28:13.191Z,1002.58
2023-04-16T00:29:13.105Z,1002.66
2023-04-16T00:30:13.020Z,1002.67
2023-04-16T00:31:12.993Z,1002.66
2023-04-16T00:32:12.905Z,1002.67
2023-04-16T00:33:12.710Z,1002.65
2023-04-16T00:34:13.617Z,1002.66
2023-04-16T00:35:13.713Z,1002.62
2023-04-16T00:36:13.630Z,1002.64
2023-04-16T00:37:13.447Z,1002.68
2023-04-16T00:38:13.240Z,1002.65
2023-04-16T00:39:13.073Z,1002.65
2023-04-16T00:40:13.269Z,1002.59
2023-04-16T00:41:13.099Z,1002.63
2023-04-16T00:42:13.101Z,1002.63
2023-04-16T00:43:13.183Z,1002.62
2023-04-16T00:44:13.514Z,1002.60
2023-04-16T00:45:13.421Z,1002.64
2023-04-16T00:46:13.387Z,1002.64
2023-04-16T00:47:13.407Z,1002.64
2023-04-16T00:48:13.231Z,1002.69
2023-04-16T00:49:13.651Z,1002.68
2023-04-16T00:50:18.567Z,1002.62
2023-04-16T00:51:13.606Z,1002.66
2023-04-16T00:52:13.519Z,1002.67
2023-04-16T00:53:13.350Z,1002.67
2023-04-16T00:54:13.236Z,1002.68
2023-04-16T00:55:13.310Z,1002.73
2023-04-16T00:56:13.230Z,1002.70
2023-04-16T00:57:13.162Z,1002.69
2023-04-16T00:58:13.161Z,1002.72
2023-04-16T00:59:13.383Z,1002.74
2023-04-16T01:00:13.580Z,1002.70
2023-04-16T01:01:13.604Z,1002.72
2023-04-16T01:02:14.247Z,1002.71
2023-04-16T01:03:13.439Z,1002.72
2023-04-16T01:04:13.558Z,1002.73
2023-04-16T01:05:13.566Z,1002.74
2023-04-16T01:06:13.794Z,1002.72
2023-04-16T01:07:13.680Z,1002.79
2023-04-16T01:08:13.508Z,1002.75
2023-04-16T01:09:13.623Z,1002.74
2023-04-16T01:10:13.716Z,1002.76
2023-04-16T01:11:13.588Z,1002.74
2023-04-16T01:12:13.720Z,1002.73
2023-04-16T01:13:13.662Z,1002.72
2023-04-16T01:14:13.982Z,1002.76
2023-04-16T01:15:12.965Z,1002.74
2023-04-16T01:16:12.906Z,1002.77
2023-04-16T01:17:12.997Z,1002.80
2023-04-16T01:18:13.125Z,1002.76
2023-04-16T01:19:13.138Z,1002.81
2023-04-16T01:20:13.105Z,1002.84
2023-04-16T01:21:13.274Z,1002.78
2023-04-16T01:22:13.244Z,1002.79
2023-04-16T01:23:13.347Z,1002.78
2023-04-16T01:24:13.416Z,1002.79
2023-04-16T01:25:13.374Z,1002.76
2023-04-16T01:26:13.326Z,1002.78
2023-04-16T01:27:13.200Z,1002.79
2023-04-16T01:28:13.081Z,1002.73
2023-04-16T01:29:12.996Z,1002.80
2023-04-16T01:30:12.908Z,1002.81
2023-04-16T01:31:12.938Z,1002.84
2023-04-16T01:32:12.872Z,1002.84
2023-04-16T01:33:13.944Z,1002.79
2023-04-16T01:34:12.938Z,1002.83
2023-04-16T01:35:12.846Z,1002.80
2023-04-16T01:36:13.713Z,1002.77
2023-04-16T01:37:13.645Z,1002.79
2023-04-16T01:38:13.567Z,1002.80
2023-04-16T01:39:13.792Z,1002.81
2023-04-16T01:40:13.848Z,1002.91
2023-04-16T01:41:13.692Z,1002.91
2023-04-16T01:42:13.884Z,1002.89
2023-04-16T01:43:12.932Z,1002.93
2023-04-16T01:44:13.070Z,1002.91
2023-04-16T01:45:13.164Z,1002.93
2023-04-16T01:46:13.079Z,1002.91
2023-04-16T01:47:13.012Z,1002.91
2023-04-16T01:48:12.926Z,1002.89
2023-04-16T01:49:12.882Z,1002.90
2023-04-16T01:50:12.810Z,1002.92
2023-04-16T01:51:13.652Z,1002.90
2023-04-16T01:52:13.626Z,1002.85
2023-04-16T01:53:13.477Z,1002.90
2023-04-16T01:54:13.449Z,1002.89
2023-04-16T01:55:13.656Z,1002.88
2023-04-16T01:56:13.518Z,1002.88
2023-04-16T01:57:13.775Z,1002.84
2023-04-16T01:58:14.129Z,1002.86
2023-04-16T01:59:13.296Z,1002.86
2023-04-16T02:00:13.652Z,1002.84
2023-04-16T02:01:13.474Z,1002.77
2023-04-16T02:02:13.529Z,1002.76
2023-04-16T02:03:13.672Z,1002.79
2023-04-16T02:04:13.830Z,1002.80
2023-04-16T02:05:13.943Z,1002.81
2023-04-16T02:06:12.871Z,1002.75
2023-04-16T02:07:13.689Z,1002.86
2023-04-16T02:08:13.718Z,1002.86
2023-04-16T02:09:13.933Z,1002.86
2023-04-16T02:10:12.834Z,1002.77
2023-04-16T02:11:13.895Z,1002.78
2023-04-16T02:12:12.855Z,1002.79
2023-04-16T02:13:13.941Z,1002.75
2023-04-16T02:14:18.078Z,1002.80
2023-04-16T02:15:12.920Z,1002.73
2023-04-16T02:16:12.863Z,1002.74
2023-04-16T02:17:13.021Z,1002.77
2023-04-16T02:18:13.103Z,1002.81
2023-04-16T02:19:12.923Z,1002.87
2023-04-16T02:20:12.835Z,1002.88
2023-04-16T02:21:13.981Z,1002.85
2023-04-16T02:22:12.859Z,1002.91
2023-04-16T02:23:14.041Z,1002.86
2023-04-16T02:24:13.027Z,1002.89
2023-04-16T02:25:13.016Z,1002.93
2023-04-16T02:26:13.463Z,1002.95
2023-04-16T02:27:13.942Z,1002.86
2023-04-16T02:28:13.097Z,1002.86
2023-04-16T02:29:13.085Z,1002.86
2023-04-16T02:30:13.109Z,1002.82
2023-04-16T02:31:13.136Z,1002.86
2023-04-16T02:32:13.340Z,1002.87
2023-04-16T02:33:13.273Z,1002.85
2023-04-16T02:34:13.317Z,1002.88
2023-04-16T02:35:13.388Z,1002.87
2023-04-16T02:36:13.676Z,1002.87
2023-04-16T02:37:13.920Z,1002.91
2023-04-16T02:38:13.055Z,1002.89
2023-04-16T02:39:13.010Z,1002.93
2023-04-16T02:40:13.181Z,1002.93
2023-04-16T02:41:13.139Z,1002.88
2023-04-16T02:42:13.084Z,1002.92
2023-04-16T02:43:13.389Z,1002.95
2023-04-16T02:44:13.412Z,1002.90
2023-04-16T02:45:13.508Z,1002.93
2023-04-16T02:46:13.641Z,1002.94
2023-04-16T02:47:13.578Z,1002.95
2023-04-16T02:48:13.450Z,1002.93
2023-04-16T02:49:13.561Z,1002.92
2023-04-16T02:50:13.475Z,1002.93
2023-04-16T02:51:13.570Z,1002.87
2023-04-16T02:52:15.505Z,1002.93
2023-04-16T02:53:13.732Z,1002.95
2023-04-16T02:54:14.049Z,1002.91
2023-04-16T02:55:12.921Z,1002.89
2023-04-16T02:56:12.990Z,1002.88
2023-04-16T02:57:13.076Z,1002.93
2023-04-16T02:58:13.309Z,1002.93
2023-04-16T02:59:13.497Z,1002.94
2023-04-16T03:00:13.612Z,1002.92
2023-04-16T03:01:13.605Z,1002.93
2023-04-16T03:02:13.945Z,1002.93
2023-04-16T03:03:13.053Z,1002.94
2023-04-16T03:04:13.056Z,1002.92
2023-04-16T03:05:13.136Z,1002.89
2023-04-16T03:06:13.293Z,1002.96
2023-04-16T03:07:13.471Z,1002.88
2023-04-16T03:08:13.728Z,1002.94
2023-04-16T03:09:13.496Z,1002.95
2023-04-16T03:10:13.442Z,1002.94
2023-04-16T03:11:13.899Z,1002.88
2023-04-16T03:12:13.009Z,1002.92
2023-04-16T03:13:12.926Z,1002.91
2023-04-16T03:14:12.962Z,1002.90
2023-04-16T03:15:12.917Z,1002.89
2023-04-16T03:16:12.845Z,1002.90
2023-04-16T03:17:12.992Z,1002.92
2023-04-16T03:18:13.218Z,1002.95
2023-04-16T03:19:13.095Z,1002.92
2023-04-16T03:20:12.977Z,1002.95
2023-04-16T03:21:12.927Z,1002.92
2023-04-16T03:22:12.982Z,1002.91
2023-04-16T03:23:13.145Z,1002.96
2023-04-16T03:24:14.524Z,1002.96
2023-04-16T03:25:13.936Z,1002.99
2023-04-16T03:26:12.974Z,1002.99
2023-04-16T03:27:12.858Z,1002.97
2023-04-16T03:28:13.809Z,1003.01
2023-04-16T03:29:13.726Z,1003.01
2023-04-16T03:30:13.732Z,1003.00
2023-04-16T03:31:13.927Z,1002.98
2023-04-16T03:32:12.857Z,1002.95
2023-04-16T03:33:13.860Z,1002.99
2023-04-16T03:34:13.798Z,1002.98
2023-04-16T03:35:13.711Z,1002.98
2023-04-16T03:36:13.577Z,1002.99
2023-04-16T03:37:13.860Z,1003.05
2023-04-16T03:38:13.969Z,1003.02
2023-04-16T03:39:12.964Z,1003.05
2023-04-16T03:40:12.811Z,1003.00
2023-04-16T03:41:13.602Z,1003.03
2023-04-16T03:42:13.501Z,1003.01
2023-04-16T03:43:13.589Z,1003.03
2023-04-16T03:44:13.587Z,1003.05
2023-04-16T03:45:13.551Z,1003.01
2023-04-16T03:46:13.827Z,1003.09
2023-04-16T03:47:12.845Z,1003.09
2023-04-16T03:48:13.998Z,1003.08
2023-04-16T03:49:12.893Z,1003.10
2023-04-16T03:50:12.790Z,1003.09
2023-04-16T03:51:13.927Z,1003.07
2023-04-16T03:52:12.878Z,1003.09
2023-04-16T03:53:12.766Z,1003.09
2023-04-16T03:54:13.760Z,1003.11
2023-04-16T03:55:13.619Z,1003.12
2023-04-16T03:56:14.782Z,1003.11
2023-04-16T03:57:13.763Z,1003.08
2023-04-16T03:58:13.742Z,1003.07
2023-04-16T03:59:13.806Z,1003.12
2023-04-16T04:00:13.698Z,1003.08
2023-04-16T04:01:13.555Z,1003.10
2023-04-16T04:02:13.823Z,1003.10
2023-04-16T04:03:12.986Z,1003.11
2023-04-16T04:04:13.248Z,1003.10
2023-04-16T04:05:13.349Z,1003.10
2023-04-16T04:06:13.355Z,1003.10
2023-04-16T04:07:13.364Z,1003.08
2023-04-16T04:08:13.245Z,1003.05
2023-04-16T04:09:13.445Z,1003.08
2023-04-16T04:10:13.378Z,1003.09
2023-04-16T04:11:13.355Z,1003.08
2023-04-16T04:12:13.227Z,1003.06
2023-04-16T04:13:13.458Z,1003.08
2023-04-16T04:14:13.369Z,1003.14
2023-04-16T04:15:13.415Z,1003.14
2023-04-16T04:16:13.424Z,1003.11
2023-04-16T04:17:13.334Z,1003.11
2023-04-16T04:18:13.290Z,1003.11
2023-04-16T04:19:13.132Z,1003.14
2023-04-16T04:20:13.210Z,1003.17
2023-04-16T04:21:13.427Z,1003.14
2023-04-16T04:22:13.309Z,1003.18
2023-04-16T04:23:13.203Z,1003.16
2023-04-16T04:24:13.654Z,1003.15
2023-04-16T04:25:13.547Z,1003.22
2023-04-16T04:26:13.436Z,1003.24
2023-04-16T04:27:13.451Z,1003.26
2023-04-16T04:28:13.396Z,1003.25
2023-04-16T04:29:13.344Z,1003.30
2023-04-16T04:30:13.439Z,1003.26
2023-04-16T04:31:13.396Z,1003.30
2023-04-16T04:32:13.298Z,1003.28
2023-04-16T04:33:13.330Z,1003.30
2023-04-16T04:34:13.796Z,1003.31
2023-04-16T04:35:13.964Z,1003.33
2023-04-16T04:36:13.130Z,1003.36
2023-04-16T04:37:13.080Z,1003.33
2023-04-16T04:38:15.564Z,1003.34
2023-04-16T04:39:13.120Z,1003.29
2023-04-16T04:40:13.107Z,1003.35
2023-04-16T04:41:13.214Z,1003.33
2023-04-16T04:42:13.203Z,1003.37
2023-04-16T04:43:13.103Z,1003.38
2023-04-16T04:44:13.131Z,1003.40
2023-04-16T04:45:13.008Z,1003.40
2023-04-16T04:46:13.568Z,1003.37
2023-04-16T04:47:13.422Z,1003.34
2023-04-16T04:48:13.219Z,1003.41
2023-04-16T04:49:13.233Z,1003.35
2023-04-16T04:50:13.156Z,1003.40
2023-04-16T04:51:13.230Z,1003.37
2023-04-16T04:52:13.198Z,1003.39
2023-04-16T04:53:13.296Z,1003.39
2023-04-16T04:54:13.182Z,1003.44
2023-04-16T04:55:13.024Z,1003.45
2023-04-16T04:56:13.310Z,1003.42
2023-04-16T04:57:13.357Z,1003.45
2023-04-16T04:58:13.576Z,1003.46
2023-04-16T04:59:13.705Z,1003.47
2023-04-16T05:00:13.642Z,1003.46
2023-04-16T05:01:13.624Z,1003.45
2023-04-16T05:02:13.795Z,1003.48
2023-04-16T05:03:13.830Z,1003.48
2023-04-16T05:04:13.817Z,1003.51
2023-04-16T05:05:13.918Z,1003.48
2023-04-16T05:06:12.844Z,1003.49
2023-04-16T05:07:13.828Z,1003.50
2023-04-16T05:08:13.700Z,1003.50
2023-04-16T05:09:13.490Z,1003.52
2023-04-16T05:10:13.493Z,1003.52
2023-04-16T05:11:13.400Z,1003.53
2023-04-16T05:12:13.325Z,1003.56
2023-04-16T05:13:13.238Z,1003.56
2023-04-16T05:14:13.261Z,1003.55
2023-04-16T05:15:13.152Z,1003.59
2023-04-16T05:16:13.486Z,1003.59
2023-04-16T05:17:13.343Z,1003.60
2023-04-16T05:18:13.309Z,1003.59
2023-04-16T05:19:13.234Z,1003.58
2023-04-16T05:20:13.569Z,1003.62
2023-04-16T05:21:14.602Z,1003.61
2023-04-16T05:22:13.628Z,1003.62
2023-04-16T05:23:13.940Z,1003.64
2023-04-16T05:24:14.782Z,1003.58
2023-04-16T05:25:12.969Z,1003.64
2023-04-16T05:26:12.930Z,1003.59
2023-04-16T05:27:12.923Z,1003.61
2023-04-16T05:28:12.808Z,1003.68
2023-04-16T05:29:13.961Z,1003.68
2023-04-16T05:30:12.877Z,1003.68
2023-04-16T05:31:12.767Z,1003.64
2023-04-16T05:32:13.682Z,1003.65
2023-04-16T05:33:13.683Z,1003.66
2023-04-16T05:34:14.648Z,1003.68
2023-04-16T05:35:15.312Z,1003.70
2023-04-16T05:36:13.207Z,1003.69
2023-04-16T05:37:13.427Z,1003.67
2023-04-16T05:38:13.314Z,1003.66
2023-04-16T05:39:13.194Z,1003.69
2023-04-16T05:40:13.203Z,1003.71
2023-04-16T05:41:13.169Z,1003.73
2023-04-16T05:42:13.210Z,1003.75
2023-04-16T05:43:13.351Z,1003.78
2023-04-16T05:44:13.664Z,1003.81
2023-04-16T05:45:13.558Z,1003.84
2023-04-16T05:46:13.933Z,1003.89
2023-04-16T05:47:12.841Z,1003.86
2023-04-16T05:48:13.722Z,1003.89
2023-04-16T05:49:13.869Z,1003.89
2023-04-16T05:50:13.864Z,1003.86
2023-04-16T05:51:14.015Z,1003.92
2023-04-16T05:52:12.932Z,1003.95
2023-04-16T05:53:13.023Z,1003.95
2023-04-16T05:54:13.124Z,1003.97
2023-04-16T05:55:12.981Z,1003.98
2023-04-16T05:56:13.313Z,1003.94
2023-04-16T05:57:13.249Z,1003.96
2023-04-16T05:58:13.259Z,1003.93
2023-04-16T05:59:13.497Z,1003.98
2023-04-16T06:00:13.510Z,1003.98
2023-04-16T06:01:13.531Z,1004.02
2023-04-16T06:02:13.884Z,1004.04
2023-04-16T06:03:13.036Z,1004.05
2023-04-16T06:04:13.544Z,1004.00
2023-04-16T06:05:13.842Z,1004.04
2023-04-16T06:06:13.831Z,1004.08
2023-04-16T06:07:13.793Z,1004.07
2023-04-16T06:08:14.242Z,1004.10
2023-04-16T06:09:13.235Z,1004.06
2023-04-16T06:10:13.097Z,1004.10
2023-04-16T06:11:13.140Z,1004.11
2023-04-16T06:12:13.001Z,1004.05
2023-04-16T06:13:13.045Z,1004.09
2023-04-16T06:14:13.470Z,1004.09
2023-04-16T06:15:13.394Z,1004.09
2023-04-16T06:16:13.791Z,1004.05
2023-04-16T06:17:13.717Z,1004.06
2023-04-16T06:18:13.705Z,1004.05
2023-04-16T06:19:13.692Z,1004.06
2023-04-16T06:20:13.515Z,1004.10
2023-04-16T06:21:13.340Z,1004.09
2023-04-16T06:22:13.360Z,1004.11
2023-04-16T06:23:13.237Z,1004.12
2023-04-16T06:24:13.383Z,1004.12
2023-04-16T06:25:14.502Z,1004.11
2023-04-16T06:26:13.639Z,1004.14
2023-04-16T06:27:13.694Z,1004.12
2023-04-16T06:28:13.985Z,1004.11
2023-04-16T06:29:12.827Z,1004.14
2023-04-16T06:30:13.647Z,1004.15
2023-04-16T06:31:13.734Z,1004.11
2023-04-16T06:32:13.674Z,1004.19
2023-04-16T06:33:13.682Z,1004.21
2023-04-16T06:34:13.586Z,1004.22
2023-04-16T06:35:13.524Z,1004.19
2023-04-16T06:36:13.412Z,1004.18
2023-04-16T06:37:13.586Z,1004.23
2023-04-16T06:38:13.970Z,1004.25
2023-04-16T06:39:12.875Z,1004.28
2023-04-16T06:40:14.810Z,1004.25
2023-04-16T06:41:13.628Z,1004.26
2023-04-16T06:42:13.670Z,1004.25
2023-04-16T06:43:13.944Z,1004.24
2023-04-16T06:44:12.833Z,1004.26
2023-04-16T06:45:13.825Z,1004.29
2023-04-16T06:46:14.015Z,1004.28
2023-04-16T06:47:12.870Z,1004.29
2023-04-16T06:48:13.928Z,1004.27
2023-04-16T06:49:12.787Z,1004.29
2023-04-16T06:50:13.670Z,1004.24
2023-04-16T06:51:13.857Z,1004.26
2023-04-16T06:52:13.677Z,1004.25
2023-04-16T06:53:13.505Z,1004.27
2023-04-16T06:54:13.388Z,1004.25
2023-04-16T06:55:13.911Z,1004.26
2023-04-16T06:56:12.732Z,1004.27
2023-04-16T06:57:18.645Z,1004.27
2023-04-16T06:58:13.561Z,1004.29
2023-04-16T06:59:18.504Z,1004.25
2023-04-16T07:00:18.448Z,1004.28
2023-04-16T07:01:13.383Z,1004.31
2023-04-16T07:02:13.436Z,1004.32
2023-04-16T07:03:13.809Z,1004.33
2023-04-16T07:04:18.336Z,1004.30
2023-04-16T07:05:18.555Z,1004.31
2023-04-16T07:06:13.554Z,1004.31
2023-04-16T07:07:13.933Z,1004.32
2023-04-16T07:08:12.912Z,1004.39
2023-04-16T07:09:13.053Z,1004.39
2023-04-16T07:10:12.872Z,1004.37
2023-04-16T07:11:18.938Z,1004.28
2023-04-16T07:12:14.128Z,1004.40
2023-04-16T07:13:13.272Z,1004.38
2023-04-16T07:14:13.373Z,1004.42
2023-04-16T07:15:13.424Z,1004.45
2023-04-16T07:16:13.455Z,1004.46
2023-04-16T07:17:19.373Z,1004.49
2023-04-16T07:18:13.569Z,1004.51
2023-04-16T07:19:13.548Z,1004.47
2023-04-16T07:20:13.576Z,1004.47
2023-04-16T07:21:13.477Z,1004.48
2023-04-16T07:22:13.584Z,1004.49
2023-04-16T07:23:13.606Z,1004.48
2023-04-16T07:24:13.553Z,1004.52
2023-04-16T07:25:13.459Z,1004.52
2023-04-16T07:26:13.328Z,1004.53
2023-04-16T07:27:13.262Z,1004.55
2023-04-16T07:28:13.196Z,1004.52
2023-04-16T07:29:13.152Z,1004.53
2023-04-16T07:30:13.192Z,1004.56
2023-04-16T07:31:13.302Z,1004.54
2023-04-16T07:32:15.144Z,1004.57
2023-04-16T07:33:13.495Z,1004.56
2023-04-16T07:34:13.573Z,1004.57
2023-04-16T07:35:13.675Z,1004.56
2023-04-16T07:36:13.582Z,1004.57
2023-04-16T07:37:13.714Z,1004.58
2023-04-16T07:38:13.518Z,1004.59
2023-04-16T07:39:13.325Z,1004.62
2023-04-16T07:40:13.217Z,1004.61
2023-04-16T07:41:13.264Z,1004.62
2023-04-16T07:42:13.255Z,1004.59
2023-04-16T07:43:13.171Z,1004.62
2023-04-16T07:44:13.441Z,1004.60
2023-04-16T07:45:13.795Z,1004.63
2023-04-16T07:46:13.688Z,1004.61
2023-04-16T07:47:14.152Z,1004.63
2023-04-16T07:48:13.195Z,1004.64
2023-04-16T07:49:13.187Z,1004.58
2023-04-16T07:50:13.397Z,1004.66
2023-04-16T07:51:13.627Z,1004.69
2023-04-16T07:52:13.530Z,1004.70
2023-04-16T07:53:30.368Z,1004.65
2023-04-16T07:54:13.742Z,1004.63
2023-04-16T07:55:13.596Z,1004.65
2023-04-16T07:56:13.801Z,1004.66
2023-04-16T07:57:13.911Z,1004.71
2023-04-16T07:58:12.923Z,1004.67
2023-04-16T08:00:12.763Z,1004.70
2023-04-16T08:01:13.998Z,1004.74
2023-04-16T08:02:13.189Z,1004.75
2023-04-16T08:03:13.349Z,1004.76
2023-04-16T08:04:13.784Z,1004.80
2023-04-16T08:05:12.959Z,1004.74
2023-04-16T08:06:12.909Z,1004.80
2023-04-16T08:07:12.716Z,1004.81
2023-04-16T08:08:18.636Z,1004.82
2023-04-16T08:09:13.824Z,1004.83
2023-04-16T08:10:13.685Z,1004.85
2023-04-16T08:11:13.511Z,1004.88
2023-04-16T08:12:13.366Z,1004.89
2023-04-16T08:13:13.626Z,1004.90
2023-04-16T08:14:13.891Z,1004.93
2023-04-16T08:15:18.626Z,1004.91
2023-04-16T08:16:15.799Z,1004.94
2023-04-16T08:17:12.850Z,1004.93
2023-04-16T08:18:13.765Z,1004.98
2023-04-16T08:19:13.721Z,1004.94
2023-04-16T08:20:17.654Z,1005.01
2023-04-16T08:21:13.443Z,1005.01
2023-04-16T08:22:13.808Z,1005.04
2023-04-16T08:23:13.890Z,1005.03
2023-04-16T08:24:12.922Z,1005.02
2023-04-16T08:25:12.809Z,1005.01
2023-04-16T08:26:13.964Z,1005.04
2023-04-16T08:27:19.088Z,1005.09
2023-04-16T08:28:13.435Z,1005.10
2023-04-16T08:29:13.490Z,1005.13
2023-04-16T08:30:13.964Z,1005.14
2023-04-16T08:31:13.213Z,1005.17
2023-04-16T08:32:13.655Z,1005.18
2023-04-16T08:33:13.569Z,1005.17
2023-04-16T08:34:13.929Z,1005.16
2023-04-16T08:35:12.943Z,1005.18
2023-04-16T08:36:13.004Z,1005.17
2023-04-16T08:37:13.075Z,1005.21
2023-04-16T08:38:13.169Z,1005.22
2023-04-16T08:39:13.568Z,1005.23
2023-04-16T08:40:13.660Z,1005.22
2023-04-16T08:41:13.927Z,1005.25
2023-04-16T08:42:12.980Z,1005.21
2023-04-16T08:43:12.817Z,1005.21
2023-04-16T08:44:14.469Z,1005.24
2023-04-16T08:45:13.674Z,1005.22
2023-04-16T08:46:13.607Z,1005.26
2023-04-16T08:47:13.971Z,1005.22
2023-04-16T08:48:13.021Z,1005.26
2023-04-16T08:49:12.973Z,1005.30
2023-04-16T08:50:12.908Z,1005.28
2023-04-16T08:51:12.838Z,1005.27
2023-04-16T08:52:13.848Z,1005.24
2023-04-16T08:53:13.923Z,1005.24
2023-04-16T08:54:13.130Z,1005.28
2023-04-16T08:55:18.290Z,1005.25
2023-04-16T08:56:13.461Z,1005.28
2023-04-16T08:57:13.633Z,1005.31
2023-04-16T08:58:13.733Z,1005.31
2023-04-16T08:59:13.976Z,1005.32
2023-04-16T09:00:14.162Z,1005.34
2023-04-16T09:01:13.115Z,1005.29
2023-04-16T09:02:13.212Z,1005.33
2023-04-16T09:03:13.918Z,1005.35
2023-04-16T09:04:13.451Z,1005.37
2023-04-16T09:05:13.840Z,1005.40
2023-04-16T09:06:13.918Z,1005.37
2023-04-16T09:07:12.819Z,1005.36
2023-04-16T09:08:13.896Z,1005.37
2023-04-16T09:09:13.971Z,1005.38
2023-04-16T09:10:13.038Z,1005.42
2023-04-16T09:11:13.219Z,1005.42
2023-04-16T09:12:13.476Z,1005.41
2023-04-16T09:13:13.465Z,1005.39
2023-04-16T09:14:13.888Z,1005.41
2023-04-16T09:15:13.054Z,1005.44
2023-04-16T09:16:13.172Z,1005.43
2023-04-16T09:17:13.331Z,1005.43
2023-04-16T09:18:13.587Z,1005.45
2023-04-16T09:19:13.487Z,1005.45
2023-04-16T09:20:13.726Z,1005.45
2023-04-16T09:21:13.814Z,1005.44
2023-04-16T09:22:14.177Z,1005.47
2023-04-16T09:23:14.029Z,1005.46
2023-04-16T09:24:12.967Z,1005.48
2023-04-16T09:25:12.863Z,1005.53
2023-04-16T09:26:13.766Z,1005.53
2023-04-16T09:27:13.724Z,1005.55
2023-04-16T09:28:13.676Z,1005.54
2023-04-16T09:29:13.642Z,1005.59
2023-04-16T09:30:13.514Z,1005.61
2023-04-16T09:31:13.590Z,1005.60
2023-04-16T09:32:14.140Z,1005.60
2023-04-16T09:33:18.522Z,1005.65
2023-04-16T09:34:13.520Z,1005.65
2023-04-16T09:35:13.811Z,1005.61
2023-04-16T09:36:13.676Z,1005.64
2023-04-16T09:37:13.779Z,1005.66
2023-04-16T09:38:13.707Z,1005.64
2023-04-16T09:39:13.572Z,1005.64
2023-04-16T09:40:13.457Z,1005.64
2023-04-16T09:41:13.762Z,1005.63
2023-04-16T09:42:13.716Z,1005.66
2023-04-16T09:43:13.974Z,1005.66
2023-04-16T09:44:13.210Z,1005.67
2023-04-16T09:45:13.490Z,1005.71
2023-04-16T09:46:13.807Z,1005.66
2023-04-16T09:47:13.636Z,1005.65
2023-04-16T09:48:13.899Z,1005.68
2023-04-16T09:49:13.061Z,1005.68
2023-04-16T09:50:13.711Z,1005.70
2023-04-16T09:51:13.741Z,1005.69
2023-04-16T09:52:13.791Z,1005.70
2023-04-16T09:53:13.741Z,1005.73
2023-04-16T09:54:13.908Z,1005.69
2023-04-16T09:55:13.029Z,1005.71
2023-04-16T09:56:12.992Z,1005.76
2023-04-16T09:57:13.289Z,1005.77
2023-04-16T09:58:13.732Z,1005.75
2023-04-16T09:59:14.064Z,1005.74
2023-04-16T10:00:13.552Z,1005.74
2023-04-16T10:01:13.752Z,1005.75
2023-04-16T10:02:15.418Z,1005.76
2023-04-16T10:03:13.764Z,1005.74
2023-04-16T10:04:13.794Z,1005.78
2023-04-16T10:05:13.816Z,1005.76
2023-04-16T10:06:13.725Z,1005.74
2023-04-16T10:07:13.681Z,1005.79
2023-04-16T10:08:13.739Z,1005.84
2023-04-16T10:09:13.747Z,1005.81
2023-04-16T10:10:14.449Z,1005.84
2023-04-16T10:11:13.678Z,1005.85
2023-04-16T10:12:13.594Z,1005.84
2023-04-16T10:13:13.532Z,1005.82
2023-04-16T10:14:13.532Z,1005.90
2023-04-16T10:15:13.525Z,1005.85
2023-04-16T10:16:14.008Z,1005.91
2023-04-16T10:17:12.976Z,1005.89
2023-04-16T10:18:13.021Z,1005.91
2023-04-16T10:19:18.070Z,1005.88
2023-04-16T10:20:13.490Z,1005.88
2023-04-16T10:21:13.152Z,1005.88
2023-04-16T10:22:13.264Z,1005.89
2023-04-16T10:23:13.413Z,1005.84
2023-04-16T10:24:13.772Z,1005.86
2023-04-16T10:25:13.649Z,1005.86
2023-04-16T10:26:14.042Z,1005.87
2023-04-16T10:27:13.103Z,1005.81
2023-04-16T10:28:13.382Z,1005.83
2023-04-16T10:29:13.503Z,1005.90
2023-04-16T10:30:13.858Z,1005.85
2023-04-16T10:31:13.970Z,1005.86
2023-04-16T10:32:13.285Z,1005.90
2023-04-16T10:33:13.496Z,1005.89
2023-04-16T10:34:13.627Z,1005.88
2023-04-16T10:35:13.767Z,1005.93
2023-04-16T10:36:13.820Z,1005.89
2023-04-16T10:37:14.026Z,1005.91
2023-04-16T10:38:13.179Z,1005.85
2023-04-16T10:39:16.690Z,1005.85
2023-04-16T10:40:13.074Z,1005.88
2023-04-16T10:41:12.932Z,1005.86
2023-04-16T10:42:12.813Z,1005.90
2023-04-16T10:43:15.127Z,1005.87
2023-04-16T10:44:13.136Z,1005.84
2023-04-16T10:45:13.094Z,1005.89
2023-04-16T10:46:19.338Z,1005.77
2023-04-16T10:47:13.446Z,1005.83
2023-04-16T10:48:13.500Z,1005.90
2023-04-16T10:49:13.620Z,1005.90
2023-04-16T10:50:13.662Z,1005.89
2023-04-16T10:51:13.684Z,1005.84
2023-04-16T10:52:13.662Z,1005.86
2023-04-16T10:53:13.754Z,1005.90
2023-04-16T10:54:13.767Z,1005.83
2023-04-16T10:55:13.921Z,1005.80
2023-04-16T10:56:16.146Z,1005.82
2023-04-16T10:57:13.060Z,1005.80
2023-04-16T10:58:13.898Z,1005.80
2023-04-16T10:59:13.008Z,1005.79
2023-04-16T11:00:13.042Z,1005.79
2023-04-16T11:01:13.015Z,1005.78
2023-04-16T11:02:13.295Z,1005.78
2023-04-16T11:03:13.445Z,1005.75
2023-04-16T11:04:13.635Z,1005.76
2023-04-16T11:05:13.594Z,1005.75
2023-04-16T11:06:13.602Z,1005.77
2023-04-16T11:07:13.622Z,1005.76
2023-04-16T11:08:13.943Z,1005.74
2023-04-16T11:09:13.100Z,1005.73
2023-04-16T11:10:13.177Z,1005.76
2023-04-16T11:11:13.122Z,1005.75
2023-04-16T11:12:13.560Z,1005.77
2023-04-16T11:13:13.660Z,1005.76
2023-04-16T11:14:18.643Z,1005.75
2023-04-16T11:15:15.023Z,1005.79
2023-04-16T11:16:13.120Z,1005.78
2023-04-16T11:17:13.119Z,1005.74
2023-04-16T11:18:14.536Z,1005.73
2023-04-16T11:19:13.438Z,1005.74
2023-04-16T11:20:19.018Z,1005.73
2023-04-16T11:21:13.336Z,1005.78
2023-04-16T11:22:13.196Z,1005.76
2023-04-16T11:23:13.144Z,1005.75
2023-04-16T11:24:13.285Z,1005.77
2023-04-16T11:25:13.188Z,1005.77
2023-04-16T11:26:18.545Z,1005.74
2023-04-16T11:27:13.688Z,1005.73
2023-04-16T11:28:13.547Z,1005.73
2023-04-16T11:29:13.776Z,1005.79
2023-04-16T11:30:13.754Z,1005.76
2023-04-16T11:31:14.070Z,1005.77
2023-04-16T11:32:12.939Z,1005.76
2023-04-16T11:33:12.894Z,1005.81
2023-04-16T11:34:12.843Z,1005.77
2023-04-16T11:35:13.842Z,1005.80
2023-04-16T11:36:13.739Z,1005.81
2023-04-16T11:37:13.985Z,1005.77
2023-04-16T11:38:13.000Z,1005.75
2023-04-16T11:39:13.051Z,1005.76
2023-04-16T11:40:12.998Z,1005.80
2023-04-16T11:41:13.012Z,1005.81
2023-04-16T11:42:13.007Z,1005.81
2023-04-16T11:43:12.913Z,1005.82
2023-04-16T11:44:13.447Z,1005.83
2023-04-16T11:45:13.616Z,1005.80
2023-04-16T11:46:24.565Z,1005.83
2023-04-16T11:47:14.032Z,1005.87
2023-04-16T11:48:13.012Z,1005.85
2023-04-16T11:49:13.875Z,1005.86
2023-04-16T11:50:13.505Z,1005.87
2023-04-16T11:51:13.482Z,1005.89
2023-04-16T11:52:13.769Z,1005.87
2023-04-16T11:53:13.804Z,1005.86
2023-04-16T11:54:14.099Z,1005.85
2023-04-16T11:55:12.960Z,1005.89
2023-04-16T11:56:13.168Z,1005.86
2023-04-16T11:57:13.402Z,1005.86
2023-04-16T11:58:13.457Z,1005.85
2023-04-16T12:00:13.157Z,1005.78
2023-04-16T12:01:13.476Z,1005.81
2023-04-16T12:02:13.499Z,1005.80
2023-04-16T12:03:13.890Z,1005.82
2023-04-16T12:04:13.265Z,1005.83
2023-04-16T12:05:13.397Z,1005.82
2023-04-16T12:06:13.680Z,1005.88
2023-04-16T12:07:13.739Z,1005.84